sensor_id;sensor_type;location;lat;lon;timestamp;pressure;altitude;pressure_sealevel;temperature
41593;BMP180;28026;48.562;14.440;2023-12-07T00:00:46;93593.00;;;7.30
41593;BMP180;28026;48.562;14.440;2023-12-07T00:03:17;93593.00;;;7.40
41593;BMP180;28026;48.562;14.440;2023-12-07T00:05:48;93592.00;;;7.30
41593;BMP180;28026;48.562;14.440;2023-12-07T00:08:19;93599.00;;;7.30
41593;BMP180;28026;48.562;14.440;2023-12-07T00:10:50;93601.00;;;7.30
41593;BMP180;28026;48.562;14.440;2023-12-07T00:13:21;93603.00;;;7.30
41593;BMP180;28026;48.562;14.440;2023-12-07T00:15:51;93605.00;;;7.20
41593;BMP180;28026;48.562;14.440;2023-12-07T00:18:22;93595.00;;;7.20
41593;BMP180;28026;48.562;14.440;2023-12-07T00:20:53;93600.00;;;7.30
41593;BMP180;28026;48.562;14.440;2023-12-07T00:23:24;93601.00;;;7.30
41593;BMP180;28026;48.562;14.440;2023-12-07T00:25:55;93606.00;;;7.30
41593;BMP180;28026;48.562;14.440;2023-12-07T00:28:26;93603.00;;;7.30
41593;BMP180;28026;48.562;14.440;2023-12-07T00:30:57;93609.00;;;7.30
41593;BMP180;28026;48.562;14.440;2023-12-07T00:33:28;93614.00;;;7.30
41593;BMP180;28026;48.562;14.440;2023-12-07T00:35:59;93627.00;;;7.30
41593;BMP180;28026;48.562;14.440;2023-12-07T00:38:30;93618.00;;;7.20
41593;BMP180;28026;48.562;14.440;2023-12-07T00:41:03;93621.00;;;7.30
41593;BMP180;28026;48.562;14.440;2023-12-07T00:43:34;93621.00;;;7.30
41593;BMP180;28026;48.562;14.440;2023-12-07T00:46:07;93620.00;;;7.30
41593;BMP180;28026;48.562;14.440;2023-12-07T00:48:38;93620.00;;;7.30
41593;BMP180;28026;48.562;14.440;2023-12-07T00:51:09;93624.00;;;7.30
41593;BMP180;28026;48.562;14.440;2023-12-07T00:53:41;93624.00;;;7.30
41593;BMP180;28026;48.562;14.440;2023-12-07T00:56:12;93620.00;;;7.30
41593;BMP180;28026;48.562;14.440;2023-12-07T00:58:42;93623.00;;;7.30
41593;BMP180;28026;48.562;14.440;2023-12-07T01:01:13;93618.00;;;7.30
41593;BMP180;28026;48.562;14.440;2023-12-07T01:03:44;93631.00;;;7.30
41593;BMP180;28026;48.562;14.440;2023-12-07T01:06:15;93619.00;;;7.30
41593;BMP180;28026;48.562;14.440;2023-12-07T01:08:47;93632.00;;;7.30
41593;BMP180;28026;48.562;14.440;2023-12-07T01:11:18;93635.00;;;7.30
41593;BMP180;28026;48.562;14.440;2023-12-07T01:13:48;93644.00;;;7.40
41593;BMP180;28026;48.562;14.440;2023-12-07T01:16:19;93627.00;;;7.40
41593;BMP180;28026;48.562;14.440;2023-12-07T01:18:50;93643.00;;;7.40
41593;BMP180;28026;48.562;14.440;2023-12-07T01:21:21;93636.00;;;7.40
41593;BMP180;28026;48.562;14.440;2023-12-07T01:23:52;93639.00;;;7.40
41593;BMP180;28026;48.562;14.440;2023-12-07T01:26:23;93641.00;;;7.50
41593;BMP180;28026;48.562;14.440;2023-12-07T01:28:54;93641.00;;;7.50
41593;BMP180;28026;48.562;14.440;2023-12-07T01:31:25;93646.00;;;7.50
41593;BMP180;28026;48.562;14.440;2023-12-07T01:33:56;93648.00;;;7.50
41593;BMP180;28026;48.562;14.440;2023-12-07T01:36:27;93642.00;;;7.50
41593;BMP180;28026;48.562;14.440;2023-12-07T01:38:58;93639.00;;;7.50
41593;BMP180;28026;48.562;14.440;2023-12-07T01:41:29;93656.00;;;7.50
41593;BMP180;28026;48.562;14.440;2023-12-07T01:44:00;93639.00;;;7.50
41593;BMP180;28026;48.562;14.440;2023-12-07T01:46:32;93644.00;;;7.50
41593;BMP180;28026;48.562;14.440;2023-12-07T01:49:03;93655.00;;;7.40
41593;BMP180;28026;48.562;14.440;2023-12-07T01:51:35;93645.00;;;7.40
41593;BMP180;28026;48.562;14.440;2023-12-07T01:54:06;93647.00;;;7.30
41593;BMP180;28026;48.562;14.440;2023-12-07T01:56:37;93649.00;;;7.30
41593;BMP180;28026;48.562;14.440;2023-12-07T01:59:09;93645.00;;;7.30
41593;BMP180;28026;48.562;14.440;2023-12-07T02:01:41;93630.00;;;7.30
41593;BMP180;28026;48.562;14.440;2023-12-07T02:04:13;93653.00;;;7.40
41593;BMP180;28026;48.562;14.440;2023-12-07T02:06:45;93635.00;;;7.40
41593;BMP180;28026;48.562;14.440;2023-12-07T02:09:16;93651.00;;;7.40
41593;BMP180;28026;48.562;14.440;2023-12-07T02:11:47;93643.00;;;7.40
41593;BMP180;28026;48.562;14.440;2023-12-07T02:14:17;93648.00;;;7.40
41593;BMP180;28026;48.562;14.440;2023-12-07T02:17:01;93656.00;;;7.40
41593;BMP180;28026;48.562;14.440;2023-12-07T02:22:56;93654.00;;;7.30
41593;BMP180;28026;48.562;14.440;2023-12-07T02:28:50;93656.00;;;7.20
41593;BMP180;28026;48.562;14.440;2023-12-07T02:31:22;93664.00;;;7.30
41593;BMP180;28026;48.562;14.440;2023-12-07T02:33:53;93660.00;;;7.20
41593;BMP180;28026;48.562;14.440;2023-12-07T02:36:27;93668.00;;;7.30
41593;BMP180;28026;48.562;14.440;2023-12-07T02:39:01;93672.00;;;7.20
41593;BMP180;28026;48.562;14.440;2023-12-07T02:41:35;93663.00;;;7.30
41593;BMP180;28026;48.562;14.440;2023-12-07T02:44:07;93664.00;;;7.30
41593;BMP180;28026;48.562;14.440;2023-12-07T02:46:39;93671.00;;;7.20
41593;BMP180;28026;48.562;14.440;2023-12-07T02:49:10;93675.00;;;7.20
41593;BMP180;28026;48.562;14.440;2023-12-07T02:51:40;93675.00;;;7.20
41593;BMP180;28026;48.562;14.440;2023-12-07T02:54:11;93683.00;;;7.20
41593;BMP180;28026;48.562;14.440;2023-12-07T02:56:42;93686.00;;;7.30
41593;BMP180;28026;48.562;14.440;2023-12-07T02:59:13;93679.00;;;7.40
41593;BMP180;28026;48.562;14.440;2023-12-07T03:01:44;93689.00;;;7.40
41593;BMP180;28026;48.562;14.440;2023-12-07T03:04:15;93677.00;;;7.40
41593;BMP180;28026;48.562;14.440;2023-12-07T03:06:46;93684.00;;;7.40
41593;BMP180;28026;48.562;14.440;2023-12-07T03:09:17;93701.00;;;7.50
41593;BMP180;28026;48.562;14.440;2023-12-07T03:11:47;93691.00;;;7.50
41593;BMP180;28026;48.562;14.440;2023-12-07T03:14:18;93701.00;;;7.60
41593;BMP180;28026;48.562;14.440;2023-12-07T03:16:50;93688.00;;;7.60
41593;BMP180;28026;48.562;14.440;2023-12-07T03:19:20;93690.00;;;7.60
41593;BMP180;28026;48.562;14.440;2023-12-07T03:21:51;93702.00;;;7.70
41593;BMP180;28026;48.562;14.440;2023-12-07T03:24:23;93703.00;;;7.70
41593;BMP180;28026;48.562;14.440;2023-12-07T03:26:53;93709.00;;;7.70
41593;BMP180;28026;48.562;14.440;2023-12-07T03:29:24;93700.00;;;7.60
41593;BMP180;28026;48.562;14.440;2023-12-07T03:31:55;93704.00;;;7.60
41593;BMP180;28026;48.562;14.440;2023-12-07T03:34:26;93708.00;;;7.60
41593;BMP180;28026;48.562;14.440;2023-12-07T03:36:57;93702.00;;;7.50
41593;BMP180;28026;48.562;14.440;2023-12-07T03:39:27;93726.00;;;7.40
41593;BMP180;28026;48.562;14.440;2023-12-07T03:42:01;93734.00;;;7.40
41593;BMP180;28026;48.562;14.440;2023-12-07T03:44:32;93722.00;;;7.40
41593;BMP180;28026;48.562;14.440;2023-12-07T03:47:03;93728.00;;;7.40
41593;BMP180;28026;48.562;14.440;2023-12-07T03:49:34;93735.00;;;7.30
41593;BMP180;28026;48.562;14.440;2023-12-07T03:52:05;93743.00;;;7.30
41593;BMP180;28026;48.562;14.440;2023-12-07T03:54:36;93749.00;;;7.30
41593;BMP180;28026;48.562;14.440;2023-12-07T03:57:08;93732.00;;;7.30
41593;BMP180;28026;48.562;14.440;2023-12-07T03:59:38;93756.00;;;7.30
41593;BMP180;28026;48.562;14.440;2023-12-07T04:02:09;93755.00;;;7.30
41593;BMP180;28026;48.562;14.440;2023-12-07T04:04:40;93756.00;;;7.20
41593;BMP180;28026;48.562;14.440;2023-12-07T04:07:11;93754.00;;;7.20
41593;BMP180;28026;48.562;14.440;2023-12-07T04:09:42;93755.00;;;7.30
41593;BMP180;28026;48.562;14.440;2023-12-07T04:12:13;93758.00;;;7.30
41593;BMP180;28026;48.562;14.440;2023-12-07T04:14:43;93751.00;;;7.30
41593;BMP180;28026;48.562;14.440;2023-12-07T04:17:14;93762.00;;;7.20
41593;BMP180;28026;48.562;14.440;2023-12-07T04:19:45;93744.00;;;7.20
41593;BMP180;28026;48.562;14.440;2023-12-07T04:22:16;93752.00;;;7.20
41593;BMP180;28026;48.562;14.440;2023-12-07T04:24:47;93763.00;;;7.20
41593;BMP180;28026;48.562;14.440;2023-12-07T04:27:18;93765.00;;;7.20
41593;BMP180;28026;48.562;14.440;2023-12-07T04:29:48;93758.00;;;7.20
41593;BMP180;28026;48.562;14.440;2023-12-07T04:32:19;93755.00;;;7.20
41593;BMP180;28026;48.562;14.440;2023-12-07T04:34:50;93758.00;;;7.20
41593;BMP180;28026;48.562;14.440;2023-12-07T04:37:21;93756.00;;;7.20
41593;BMP180;28026;48.562;14.440;2023-12-07T04:39:52;93765.00;;;7.10
41593;BMP180;28026;48.562;14.440;2023-12-07T04:42:23;93761.00;;;7.10
41593;BMP180;28026;48.562;14.440;2023-12-07T04:44:54;93767.00;;;7.10
41593;BMP180;28026;48.562;14.440;2023-12-07T04:47:24;93762.00;;;7.10
41593;BMP180;28026;48.562;14.440;2023-12-07T04:49:55;93754.00;;;7.10
41593;BMP180;28026;48.562;14.440;2023-12-07T04:52:26;93760.00;;;7.00
41593;BMP180;28026;48.562;14.440;2023-12-07T04:54:57;93745.00;;;7.00
41593;BMP180;28026;48.562;14.440;2023-12-07T04:57:28;93758.00;;;7.00
41593;BMP180;28026;48.562;14.440;2023-12-07T04:59:59;93766.00;;;7.00
41593;BMP180;28026;48.562;14.440;2023-12-07T05:02:30;93784.00;;;7.00
41593;BMP180;28026;48.562;14.440;2023-12-07T05:05:01;93777.00;;;7.00
41593;BMP180;28026;48.562;14.440;2023-12-07T05:07:32;93775.00;;;7.00
41593;BMP180;28026;48.562;14.440;2023-12-07T05:10:03;93779.00;;;7.00
41593;BMP180;28026;48.562;14.440;2023-12-07T05:12:34;93775.00;;;7.00
41593;BMP180;28026;48.562;14.440;2023-12-07T05:15:06;93779.00;;;7.00
41593;BMP180;28026;48.562;14.440;2023-12-07T05:17:38;93789.00;;;7.00
41593;BMP180;28026;48.562;14.440;2023-12-07T05:20:10;93773.00;;;7.10
41593;BMP180;28026;48.562;14.440;2023-12-07T05:22:43;93788.00;;;7.10
41593;BMP180;28026;48.562;14.440;2023-12-07T05:25:13;93798.00;;;7.10
41593;BMP180;28026;48.562;14.440;2023-12-07T05:27:44;93795.00;;;7.00
41593;BMP180;28026;48.562;14.440;2023-12-07T05:30:15;93787.00;;;7.00
41593;BMP180;28026;48.562;14.440;2023-12-07T05:32:46;93809.00;;;7.00
41593;BMP180;28026;48.562;14.440;2023-12-07T05:35:17;93813.00;;;7.00
41593;BMP180;28026;48.562;14.440;2023-12-07T05:37:48;93816.00;;;7.10
41593;BMP180;28026;48.562;14.440;2023-12-07T05:40:19;93808.00;;;7.10
41593;BMP180;28026;48.562;14.440;2023-12-07T05:42:50;93829.00;;;7.20
41593;BMP180;28026;48.562;14.440;2023-12-07T05:45:21;93816.00;;;7.20
41593;BMP180;28026;48.562;14.440;2023-12-07T05:47:52;93820.00;;;7.20
41593;BMP180;28026;48.562;14.440;2023-12-07T05:50:24;93814.00;;;7.30
41593;BMP180;28026;48.562;14.440;2023-12-07T05:52:55;93829.00;;;7.30
41593;BMP180;28026;48.562;14.440;2023-12-07T05:55:26;93817.00;;;7.30
41593;BMP180;28026;48.562;14.440;2023-12-07T05:57:57;93813.00;;;7.30
41593;BMP180;28026;48.562;14.440;2023-12-07T06:00:28;93802.00;;;7.20
41593;BMP180;28026;48.562;14.440;2023-12-07T06:02:58;93809.00;;;7.20
41593;BMP180;28026;48.562;14.440;2023-12-07T06:05:29;93831.00;;;7.30
41593;BMP180;28026;48.562;14.440;2023-12-07T06:08:00;93826.00;;;7.30
41593;BMP180;28026;48.562;14.440;2023-12-07T06:10:31;93831.00;;;7.30
41593;BMP180;28026;48.562;14.440;2023-12-07T06:13:02;93836.00;;;7.40
41593;BMP180;28026;48.562;14.440;2023-12-07T06:15:34;93830.00;;;7.40
41593;BMP180;28026;48.562;14.440;2023-12-07T06:18:05;93835.00;;;7.50
41593;BMP180;28026;48.562;14.440;2023-12-07T06:20:36;93837.00;;;7.40
41593;BMP180;28026;48.562;14.440;2023-12-07T06:23:07;93832.00;;;7.40
41593;BMP180;28026;48.562;14.440;2023-12-07T06:25:38;93828.00;;;7.40
41593;BMP180;28026;48.562;14.440;2023-12-07T06:28:10;93837.00;;;7.40
41593;BMP180;28026;48.562;14.440;2023-12-07T06:30:40;93838.00;;;7.30
41593;BMP180;28026;48.562;14.440;2023-12-07T06:33:12;93842.00;;;7.30
41593;BMP180;28026;48.562;14.440;2023-12-07T06:35:43;93845.00;;;7.30
41593;BMP180;28026;48.562;14.440;2023-12-07T06:38:14;93837.00;;;7.30
41593;BMP180;28026;48.562;14.440;2023-12-07T06:40:45;93840.00;;;7.30
41593;BMP180;28026;48.562;14.440;2023-12-07T06:43:15;93845.00;;;7.40
41593;BMP180;28026;48.562;14.440;2023-12-07T06:45:46;93852.00;;;7.40
41593;BMP180;28026;48.562;14.440;2023-12-07T06:48:17;93840.00;;;7.40
41593;BMP180;28026;48.562;14.440;2023-12-07T06:50:48;93842.00;;;7.40
41593;BMP180;28026;48.562;14.440;2023-12-07T06:53:19;93832.00;;;7.40
41593;BMP180;28026;48.562;14.440;2023-12-07T06:55:50;93858.00;;;7.40
41593;BMP180;28026;48.562;14.440;2023-12-07T06:58:21;93853.00;;;7.40
41593;BMP180;28026;48.562;14.440;2023-12-07T07:00:51;93847.00;;;7.40
41593;BMP180;28026;48.562;14.440;2023-12-07T07:03:22;93843.00;;;7.40
41593;BMP180;28026;48.562;14.440;2023-12-07T07:05:55;93853.00;;;7.40
41593;BMP180;28026;48.562;14.440;2023-12-07T07:08:26;93866.00;;;7.50
41593;BMP180;28026;48.562;14.440;2023-12-07T07:10:57;93856.00;;;7.50
41593;BMP180;28026;48.562;14.440;2023-12-07T07:13:28;93857.00;;;7.60
41593;BMP180;28026;48.562;14.440;2023-12-07T07:15:58;93868.00;;;7.60
41593;BMP180;28026;48.562;14.440;2023-12-07T07:18:29;93871.00;;;7.70
41593;BMP180;28026;48.562;14.440;2023-12-07T07:21:00;93866.00;;;7.70
41593;BMP180;28026;48.562;14.440;2023-12-07T07:23:31;93876.00;;;7.70
41593;BMP180;28026;48.562;14.440;2023-12-07T07:26:02;93872.00;;;7.60
41593;BMP180;28026;48.562;14.440;2023-12-07T07:28:33;93866.00;;;7.60
41593;BMP180;28026;48.562;14.440;2023-12-07T07:31:05;93876.00;;;7.70
41593;BMP180;28026;48.562;14.440;2023-12-07T07:33:36;93872.00;;;7.70
41593;BMP180;28026;48.562;14.440;2023-12-07T07:36:07;93876.00;;;7.70
41593;BMP180;28026;48.562;14.440;2023-12-07T07:38:39;93871.00;;;7.80
41593;BMP180;28026;48.562;14.440;2023-12-07T07:41:10;93883.00;;;7.70
41593;BMP180;28026;48.562;14.440;2023-12-07T07:43:41;93868.00;;;7.70
41593;BMP180;28026;48.562;14.440;2023-12-07T07:46:14;93875.00;;;7.70
41593;BMP180;28026;48.562;14.440;2023-12-07T07:48:45;93876.00;;;7.80
41593;BMP180;28026;48.562;14.440;2023-12-07T07:51:16;93882.00;;;7.80
41593;BMP180;28026;48.562;14.440;2023-12-07T07:53:47;93878.00;;;7.90
41593;BMP180;28026;48.562;14.440;2023-12-07T07:56:18;93877.00;;;7.90
41593;BMP180;28026;48.562;14.440;2023-12-07T07:58:49;93859.00;;;7.90
41593;BMP180;28026;48.562;14.440;2023-12-07T08:01:19;93878.00;;;7.90
41593;BMP180;28026;48.562;14.440;2023-12-07T08:03:50;93876.00;;;7.90
41593;BMP180;28026;48.562;14.440;2023-12-07T08:06:21;93865.00;;;8.00
41593;BMP180;28026;48.562;14.440;2023-12-07T08:08:52;93877.00;;;8.00
41593;BMP180;28026;48.562;14.440;2023-12-07T08:11:23;93879.00;;;8.00
41593;BMP180;28026;48.562;14.440;2023-12-07T08:13:54;93880.00;;;8.00
41593;BMP180;28026;48.562;14.440;2023-12-07T08:16:25;93882.00;;;8.10
41593;BMP180;28026;48.562;14.440;2023-12-07T08:18:56;93876.00;;;8.10
41593;BMP180;28026;48.562;14.440;2023-12-07T08:21:28;93873.00;;;8.10
41593;BMP180;28026;48.562;14.440;2023-12-07T08:24:00;93880.00;;;8.20
41593;BMP180;28026;48.562;14.440;2023-12-07T08:26:31;93878.00;;;8.20
41593;BMP180;28026;48.562;14.440;2023-12-07T08:29:02;93869.00;;;8.20
41593;BMP180;28026;48.562;14.440;2023-12-07T08:31:33;93880.00;;;8.20
41593;BMP180;28026;48.562;14.440;2023-12-07T08:34:04;93878.00;;;8.20
41593;BMP180;28026;48.562;14.440;2023-12-07T08:36:35;93884.00;;;8.30
41593;BMP180;28026;48.562;14.440;2023-12-07T08:39:05;93880.00;;;8.30
41593;BMP180;28026;48.562;14.440;2023-12-07T08:41:40;93887.00;;;8.30
41593;BMP180;28026;48.562;14.440;2023-12-07T08:44:11;93888.00;;;8.40
41593;BMP180;28026;48.562;14.440;2023-12-07T08:46:42;93890.00;;;8.40
41593;BMP180;28026;48.562;14.440;2023-12-07T08:49:15;93896.00;;;8.50
41593;BMP180;28026;48.562;14.440;2023-12-07T08:51:46;93892.00;;;8.50
41593;BMP180;28026;48.562;14.440;2023-12-07T08:54:17;93891.00;;;8.60
41593;BMP180;28026;48.562;14.440;2023-12-07T08:56:48;93901.00;;;8.60
41593;BMP180;28026;48.562;14.440;2023-12-07T08:59:18;93903.00;;;8.60
41593;BMP180;28026;48.562;14.440;2023-12-07T09:01:49;93899.00;;;8.60
41593;BMP180;28026;48.562;14.440;2023-12-07T09:04:20;93887.00;;;8.50
41593;BMP180;28026;48.562;14.440;2023-12-07T09:06:51;93898.00;;;8.50
41593;BMP180;28026;48.562;14.440;2023-12-07T09:09:22;93898.00;;;8.40
41593;BMP180;28026;48.562;14.440;2023-12-07T09:11:54;93908.00;;;8.40
41593;BMP180;28026;48.562;14.440;2023-12-07T09:14:25;93915.00;;;8.30
41593;BMP180;28026;48.562;14.440;2023-12-07T09:16:57;93911.00;;;8.30
41593;BMP180;28026;48.562;14.440;2023-12-07T09:19:28;93894.00;;;8.30
41593;BMP180;28026;48.562;14.440;2023-12-07T09:21:58;93910.00;;;8.40
41593;BMP180;28026;48.562;14.440;2023-12-07T09:24:29;93920.00;;;8.40
41593;BMP180;28026;48.562;14.440;2023-12-07T09:27:00;93911.00;;;8.50
41593;BMP180;28026;48.562;14.440;2023-12-07T09:29:31;93892.00;;;8.50
41593;BMP180;28026;48.562;14.440;2023-12-07T09:32:02;93914.00;;;8.50
41593;BMP180;28026;48.562;14.440;2023-12-07T09:34:34;93913.00;;;8.60
41593;BMP180;28026;48.562;14.440;2023-12-07T09:37:11;93915.00;;;8.60
41593;BMP180;28026;48.562;14.440;2023-12-07T09:39:42;93906.00;;;8.60
41593;BMP180;28026;48.562;14.440;2023-12-07T09:42:13;93910.00;;;8.60
41593;BMP180;28026;48.562;14.440;2023-12-07T09:44:43;93911.00;;;8.60
41593;BMP180;28026;48.562;14.440;2023-12-07T09:47:15;93919.00;;;8.60
41593;BMP180;28026;48.562;14.440;2023-12-07T09:49:46;93906.00;;;8.50
41593;BMP180;28026;48.562;14.440;2023-12-07T09:52:19;93908.00;;;8.50
41593;BMP180;28026;48.562;14.440;2023-12-07T09:54:52;93895.00;;;8.50
41593;BMP180;28026;48.562;14.440;2023-12-07T09:57:25;93895.00;;;8.60
41593;BMP180;28026;48.562;14.440;2023-12-07T09:59:56;93895.00;;;8.60
41593;BMP180;28026;48.562;14.440;2023-12-07T10:02:28;93885.00;;;8.60
41593;BMP180;28026;48.562;14.440;2023-12-07T10:05:09;93892.00;;;8.60
41593;BMP180;28026;48.562;14.440;2023-12-07T10:07:45;93892.00;;;8.70
41593;BMP180;28026;48.562;14.440;2023-12-07T10:10:19;93893.00;;;8.70
41593;BMP180;28026;48.562;14.440;2023-12-07T10:12:54;93886.00;;;8.80
41593;BMP180;28026;48.562;14.440;2023-12-07T10:15:28;93889.00;;;8.90
41593;BMP180;28026;48.562;14.440;2023-12-07T10:17:59;93886.00;;;8.90
41593;BMP180;28026;48.562;14.440;2023-12-07T10:20:30;93888.00;;;8.90
41593;BMP180;28026;48.562;14.440;2023-12-07T10:23:07;93897.00;;;8.90
41593;BMP180;28026;48.562;14.440;2023-12-07T10:25:41;93891.00;;;8.90
41593;BMP180;28026;48.562;14.440;2023-12-07T10:28:13;93889.00;;;9.00
41593;BMP180;28026;48.562;14.440;2023-12-07T10:30:47;93879.00;;;9.00
41593;BMP180;28026;48.562;14.440;2023-12-07T10:33:19;93887.00;;;9.00
41593;BMP180;28026;48.562;14.440;2023-12-07T10:35:50;93878.00;;;8.90
41593;BMP180;28026;48.562;14.440;2023-12-07T10:38:21;93890.00;;;8.90
41593;BMP180;28026;48.562;14.440;2023-12-07T10:41:06;93891.00;;;8.90
41593;BMP180;28026;48.562;14.440;2023-12-07T10:43:43;93871.00;;;8.70
41593;BMP180;28026;48.562;14.440;2023-12-07T10:46:20;93881.00;;;8.70
41593;BMP180;28026;48.562;14.440;2023-12-07T10:49:00;93876.00;;;8.60
41593;BMP180;28026;48.562;14.440;2023-12-07T10:51:42;93882.00;;;8.70
41593;BMP180;28026;48.562;14.440;2023-12-07T10:54:22;93862.00;;;8.80
41593;BMP180;28026;48.562;14.440;2023-12-07T10:57:01;93877.00;;;8.90
41593;BMP180;28026;48.562;14.440;2023-12-07T10:59:36;93882.00;;;9.00
41593;BMP180;28026;48.562;14.440;2023-12-07T11:02:13;93876.00;;;9.10
41593;BMP180;28026;48.562;14.440;2023-12-07T11:04:46;93869.00;;;9.20
41593;BMP180;28026;48.562;14.440;2023-12-07T11:07:22;93878.00;;;9.30
41593;BMP180;28026;48.562;14.440;2023-12-07T11:10:07;93874.00;;;9.30
41593;BMP180;28026;48.562;14.440;2023-12-07T11:12:55;93871.00;;;9.40
41593;BMP180;28026;48.562;14.440;2023-12-07T11:15:39;93866.00;;;9.30
41593;BMP180;28026;48.562;14.440;2023-12-07T11:18:11;93863.00;;;9.40
41593;BMP180;28026;48.562;14.440;2023-12-07T11:20:46;93866.00;;;9.40
41593;BMP180;28026;48.562;14.440;2023-12-07T11:23:20;93862.00;;;9.50
41593;BMP180;28026;48.562;14.440;2023-12-07T11:25:53;93859.00;;;9.50
41593;BMP180;28026;48.562;14.440;2023-12-07T11:28:37;93854.00;;;9.50
41593;BMP180;28026;48.562;14.440;2023-12-07T11:31:10;93855.00;;;9.50
41593;BMP180;28026;48.562;14.440;2023-12-07T11:33:41;93860.00;;;9.50
41593;BMP180;28026;48.562;14.440;2023-12-07T11:36:13;93851.00;;;9.50
41593;BMP180;28026;48.562;14.440;2023-12-07T11:41:45;93860.00;;;9.70
41593;BMP180;28026;48.562;14.440;2023-12-07T11:44:33;93854.00;;;9.70
41593;BMP180;28026;48.562;14.440;2023-12-07T11:47:06;93848.00;;;9.60
41593;BMP180;28026;48.562;14.440;2023-12-07T11:49:38;93853.00;;;9.60
41593;BMP180;28026;48.562;14.440;2023-12-07T11:52:18;93855.00;;;9.60
41593;BMP180;28026;48.562;14.440;2023-12-07T11:54:50;93846.00;;;9.50
41593;BMP180;28026;48.562;14.440;2023-12-07T11:57:21;93852.00;;;9.50
41593;BMP180;28026;48.562;14.440;2023-12-07T11:59:52;93846.00;;;9.60
41593;BMP180;28026;48.562;14.440;2023-12-07T12:02:23;93846.00;;;9.70
41593;BMP180;28026;48.562;14.440;2023-12-07T12:04:54;93832.00;;;9.70
41593;BMP180;28026;48.562;14.440;2023-12-07T12:07:25;93852.00;;;9.60
41593;BMP180;28026;48.562;14.440;2023-12-07T12:09:56;93853.00;;;9.60
41593;BMP180;28026;48.562;14.440;2023-12-07T12:12:27;93854.00;;;9.60
41593;BMP180;28026;48.562;14.440;2023-12-07T12:14:59;93848.00;;;9.70
41593;BMP180;28026;48.562;14.440;2023-12-07T12:17:29;93832.00;;;9.90
41593;BMP180;28026;48.562;14.440;2023-12-07T12:20:03;93850.00;;;10.20
41593;BMP180;28026;48.562;14.440;2023-12-07T12:22:36;93856.00;;;10.20
41593;BMP180;28026;48.562;14.440;2023-12-07T12:25:08;93854.00;;;10.20
41593;BMP180;28026;48.562;14.440;2023-12-07T12:27:40;93846.00;;;10.10
41593;BMP180;28026;48.562;14.440;2023-12-07T12:30:12;93837.00;;;10.10
41593;BMP180;28026;48.562;14.440;2023-12-07T12:32:47;93845.00;;;10.30
41593;BMP180;28026;48.562;14.440;2023-12-07T12:35:18;93830.00;;;10.40
41593;BMP180;28026;48.562;14.440;2023-12-07T12:37:49;93834.00;;;10.50
41593;BMP180;28026;48.562;14.440;2023-12-07T12:40:22;93836.00;;;10.50
41593;BMP180;28026;48.562;14.440;2023-12-07T12:42:54;93835.00;;;10.50
41593;BMP180;28026;48.562;14.440;2023-12-07T12:45:25;93841.00;;;10.60
41593;BMP180;28026;48.562;14.440;2023-12-07T12:47:56;93831.00;;;10.60
41593;BMP180;28026;48.562;14.440;2023-12-07T12:50:35;93837.00;;;10.60
41593;BMP180;28026;48.562;14.440;2023-12-07T12:53:09;93839.00;;;10.60
41593;BMP180;28026;48.562;14.440;2023-12-07T12:55:42;93839.00;;;10.70
41593;BMP180;28026;48.562;14.440;2023-12-07T12:58:14;93832.00;;;10.60
41593;BMP180;28026;48.562;14.440;2023-12-07T13:00:47;93830.00;;;10.50
41593;BMP180;28026;48.562;14.440;2023-12-07T13:03:18;93825.00;;;10.50
41593;BMP180;28026;48.562;14.440;2023-12-07T13:05:49;93838.00;;;10.50
41593;BMP180;28026;48.562;14.440;2023-12-07T13:08:20;93840.00;;;10.40
41593;BMP180;28026;48.562;14.440;2023-12-07T13:10:51;93838.00;;;10.20
41593;BMP180;28026;48.562;14.440;2023-12-07T13:13:22;93834.00;;;10.00
41593;BMP180;28026;48.562;14.440;2023-12-07T13:15:53;93841.00;;;9.80
41593;BMP180;28026;48.562;14.440;2023-12-07T13:18:24;93843.00;;;9.60
41593;BMP180;28026;48.562;14.440;2023-12-07T13:20:55;93841.00;;;9.40
41593;BMP180;28026;48.562;14.440;2023-12-07T13:23:26;93845.00;;;9.30
41593;BMP180;28026;48.562;14.440;2023-12-07T13:25:57;93824.00;;;9.30
41593;BMP180;28026;48.562;14.440;2023-12-07T13:28:28;93836.00;;;9.30
41593;BMP180;28026;48.562;14.440;2023-12-07T13:30:58;93839.00;;;9.30
41593;BMP180;28026;48.562;14.440;2023-12-07T13:33:29;93848.00;;;9.30
41593;BMP180;28026;48.562;14.440;2023-12-07T13:36:00;93844.00;;;9.30
41593;BMP180;28026;48.562;14.440;2023-12-07T13:38:32;93840.00;;;9.20
41593;BMP180;28026;48.562;14.440;2023-12-07T13:41:04;93840.00;;;9.20
41593;BMP180;28026;48.562;14.440;2023-12-07T13:43:35;93850.00;;;9.10
41593;BMP180;28026;48.562;14.440;2023-12-07T13:46:06;93843.00;;;9.10
41593;BMP180;28026;48.562;14.440;2023-12-07T13:48:36;93847.00;;;9.00
41593;BMP180;28026;48.562;14.440;2023-12-07T13:51:08;93841.00;;;9.00
41593;BMP180;28026;48.562;14.440;2023-12-07T13:53:39;93845.00;;;8.90
41593;BMP180;28026;48.562;14.440;2023-12-07T13:56:10;93832.00;;;8.80
41593;BMP180;28026;48.562;14.440;2023-12-07T13:58:41;93829.00;;;8.80
41593;BMP180;28026;48.562;14.440;2023-12-07T14:01:12;93835.00;;;8.80
41593;BMP180;28026;48.562;14.440;2023-12-07T14:03:43;93833.00;;;8.80
41593;BMP180;28026;48.562;14.440;2023-12-07T14:06:22;93839.00;;;8.80
41593;BMP180;28026;48.562;14.440;2023-12-07T14:08:56;93838.00;;;8.80
41593;BMP180;28026;48.562;14.440;2023-12-07T14:11:27;93844.00;;;8.90
41593;BMP180;28026;48.562;14.440;2023-12-07T14:13:58;93849.00;;;8.90
41593;BMP180;28026;48.562;14.440;2023-12-07T14:16:29;93848.00;;;9.00
41593;BMP180;28026;48.562;14.440;2023-12-07T14:19:00;93845.00;;;9.10
41593;BMP180;28026;48.562;14.440;2023-12-07T14:21:31;93841.00;;;9.10
41593;BMP180;28026;48.562;14.440;2023-12-07T14:24:02;93849.00;;;9.20
41593;BMP180;28026;48.562;14.440;2023-12-07T14:26:34;93852.00;;;9.20
41593;BMP180;28026;48.562;14.440;2023-12-07T14:29:06;93850.00;;;9.30
41593;BMP180;28026;48.562;14.440;2023-12-07T14:31:39;93855.00;;;9.30
41593;BMP180;28026;48.562;14.440;2023-12-07T14:34:10;93857.00;;;9.40
41593;BMP180;28026;48.562;14.440;2023-12-07T14:36:41;93864.00;;;9.40
41593;BMP180;28026;48.562;14.440;2023-12-07T14:39:14;93862.00;;;9.50
41593;BMP180;28026;48.562;14.440;2023-12-07T14:41:50;93869.00;;;9.70
41593;BMP180;28026;48.562;14.440;2023-12-07T14:44:23;93853.00;;;9.80